Time;durP1;ratioP1;P1;durP2;ratioP2;P2;SDS_P1;SDS_P2;PMS_P1;PMS_P2;Temp;Humidity;BMP_temperature;BMP_pressure;BME280_temperature;BME280_humidity;BME280_pressure;Samples;Min_cycle;Max_cycle;Signal;HPM_P1;HPM_P2
2022/10/17 00:01:00;;;;;;;10.70;4.15;;;14.20;99.90;;;;;;4951101;28;100286;-73
2022/10/17 00:03:27;;;;;;;11.35;4.78;;;14.30;99.90;;;;;;4952660;28;99707;-72
2022/10/17 00:05:54;;;;;;;8.30;4.65;;;14.30;99.90;;;;;;4953365;28;98593;-73
2022/10/17 00:08:21;;;;;;;8.13;4.40;;;14.30;99.90;;;;;;4952615;28;101385;-73
2022/10/17 00:10:57;;;;;;;13.50;4.68;;;14.30;99.90;;;;;;4951596;28;99566;-73
2022/10/17 00:13:24;;;;;;;7.32;4.63;;;14.40;99.90;;;;;;4935031;28;101765;-73
2022/10/17 00:15:52;;;;;;;6.60;4.30;;;14.30;99.90;;;;;;4935680;28;98528;-73
2022/10/17 00:18:19;;;;;;;9.98;4.57;;;14.40;99.90;;;;;;4953261;28;97818;-73
2022/10/17 00:20:46;;;;;;;7.50;4.35;;;14.40;99.90;;;;;;4951500;28;101828;-73
2022/10/17 00:23:12;;;;;;;7.07;4.35;;;14.40;99.90;;;;;;4952546;28;98516;-73
2022/10/17 00:25:40;;;;;;;11.15;4.53;;;14.50;99.90;;;;;;4951704;28;99253;-73
2022/10/17 00:28:11;;;;;;;8.40;4.53;;;14.50;99.90;;;;;;4967670;28;99212;-73
2022/10/17 00:30:38;;;;;;;10.50;5.13;;;14.50;99.90;;;;;;4952797;28;99522;-73
2022/10/17 00:33:06;;;;;;;10.73;4.93;;;14.50;99.90;;;;;;4967401;28;101771;-73
2022/10/17 00:35:33;;;;;;;8.15;4.25;;;14.50;99.90;;;;;;4951255;28;98585;-73
2022/10/17 00:38:00;;;;;;;5.68;4.63;;;14.60;99.90;;;;;;4967950;28;98621;-73
2022/10/17 00:40:27;;;;;;;8.85;4.30;;;14.50;99.90;;;;;;4951115;28;99305;-73
2022/10/17 00:42:53;;;;;;;6.88;4.75;;;14.60;99.90;;;;;;4967695;28;101659;-73
2022/10/17 00:45:29;;;;;;;13.10;5.03;;;14.60;99.90;;;;;;4967477;28;99365;-72
2022/10/17 00:48:04;;;;;;;11.45;5.30;;;14.60;99.90;;;;;;4951737;28;98492;-73
2022/10/17 00:50:33;;;;;;;9.57;4.75;;;14.60;99.90;;;;;;4967128;28;102818;-73
2022/10/17 00:53:03;;;;;;;11.60;5.10;;;14.60;99.90;;;;;;4952308;28;99756;-73
2022/10/17 00:55:34;;;;;;;10.32;5.35;;;14.50;99.90;;;;;;4967503;28;98722;-73
2022/10/17 00:58:03;;;;;;;8.27;5.22;;;14.50;99.90;;;;;;4952990;28;98556;-73
2022/10/17 01:00:30;;;;;;;9.95;5.82;;;14.60;99.90;;;;;;4954101;28;99390;-73
2022/10/17 01:02:58;;;;;;;9.23;4.90;;;14.50;99.90;;;;;;4970702;28;101487;-73
2022/10/17 01:05:25;;;;;;;11.77;5.80;;;14.50;99.90;;;;;;4955896;28;98512;-73
2022/10/17 01:07:53;;;;;;;9.73;6.22;;;14.50;99.90;;;;;;4971308;28;97839;-73
2022/10/17 01:10:21;;;;;;;9.10;6.15;;;14.50;99.90;;;;;;4953822;28;102470;-73
2022/10/17 01:13:09;;;;;;;11.63;6.13;;;14.60;99.90;;;;;;4970530;28;101659;-73
2022/10/17 01:15:42;;;;;;;9.95;5.75;;;14.60;99.90;;;;;;4954151;28;99333;-73
2022/10/17 01:18:47;;;;;;;11.52;5.95;;;14.50;99.90;;;;;;4956170;28;99316;-73
2022/10/17 01:21:32;;;;;;;9.73;6.07;;;14.60;99.90;;;;;;4970236;28;102038;-73
2022/10/17 01:24:07;;;;;;;7.75;5.28;;;14.60;99.90;;;;;;4970376;28;101285;-73
2022/10/17 01:27:08;;;;;;;9.80;5.53;;;14.50;99.90;;;;;;4938046;28;98629;-73
2022/10/17 01:29:50;;;;;;;7.90;5.78;;;14.60;99.90;;;;;;4938024;28;98540;-73
2022/10/17 01:32:19;;;;;;;8.95;6.03;;;14.60;99.90;;;;;;4970081;28;101853;-73
2022/10/17 01:35:18;;;;;;;10.25;6.60;;;14.60;99.90;;;;;;4954183;28;101207;-73
2022/10/17 01:37:54;;;;;;;8.70;6.30;;;14.60;99.90;;;;;;4949753;28;98738;-73
2022/10/17 01:40:27;;;;;;;8.35;6.15;;;14.60;99.90;;;;;;4955382;28;98570;-73
2022/10/17 01:43:31;;;;;;;7.07;6.25;;;14.70;99.90;;;;;;4953326;28;102814;-73
2022/10/17 01:46:05;;;;;;;7.68;6.90;;;14.70;99.90;;;;;;4931633;28;102342;-73
2022/10/17 01:48:35;;;;;;;9.52;6.93;;;14.70;99.90;;;;;;4954108;28;99141;-73
2022/10/17 01:51:10;;;;;;;10.43;7.43;;;14.70;99.90;;;;;;4953888;28;98592;-73
2022/10/17 01:54:00;;;;;;;10.05;6.88;;;14.70;99.90;;;;;;4937200;28;102145;-73
2022/10/17 01:56:30;;;;;;;10.05;7.05;;;14.70;99.90;;;;;;4969350;28;101480;-73
2022/10/17 01:59:09;;;;;;;11.13;7.20;;;14.60;99.90;;;;;;4970158;28;98578;-73
2022/10/17 02:01:38;;;;;;;10.13;7.68;;;14.50;99.90;;;;;;4970219;28;97856;-73
2022/10/17 02:04:07;;;;;;;8.65;7.50;;;14.50;99.90;;;;;;4953220;28;102002;-73
2022/10/17 02:06:35;;;;;;;12.13;7.30;;;14.50;99.90;;;;;;4969289;28;99084;-73
2022/10/17 02:09:22;;;;;;;9.13;7.45;;;14.50;99.90;;;;;;4953138;28;99341;-73
2022/10/17 02:12:11;;;;;;;11.40;7.18;;;14.50;99.90;;;;;;4953644;28;98724;-73
2022/10/17 02:15:04;;;;;;;8.02;7.32;;;14.40;99.90;;;;;;4937034;28;101523;-73
2022/10/17 02:18:02;;;;;;;9.73;7.93;;;14.40;99.90;;;;;;4954475;28;99090;-73
2022/10/17 02:20:36;;;;;;;9.57;7.93;;;14.40;99.90;;;;;;4953398;28;98597;-73
2022/10/17 02:23:12;;;;;;;9.20;8.25;;;14.30;99.90;;;;;;4969921;28;99172;-73
2022/10/17 02:26:04;;;;;;;9.15;7.75;;;14.30;99.90;;;;;;4952766;28;101936;-73
2022/10/17 02:28:55;;;;;;;9.27;8.27;;;14.30;99.90;;;;;;4953039;28;101448;-73
2022/10/17 02:31:30;;;;;;;10.70;8.82;;;14.20;99.90;;;;;;4937059;28;98557;-73
2022/10/17 02:34:13;;;;;;;10.27;8.57;;;14.20;99.90;;;;;;4954589;28;98404;-73
2022/10/17 02:36:45;;;;;;;9.55;8.63;;;14.20;99.90;;;;;;4968167;28;102658;-73
2022/10/17 02:39:14;;;;;;;10.75;8.85;;;14.20;99.90;;;;;;4952856;28;102042;-73
2022/10/17 02:41:43;;;;;;;10.70;8.10;;;14.20;99.90;;;;;;4969294;28;98525;-73
2022/10/17 02:44:11;;;;;;;9.48;8.57;;;14.10;99.90;;;;;;4969447;28;98725;-73
2022/10/17 02:46:40;;;;;;;9.68;8.68;;;14.10;99.90;;;;;;4952382;28;101547;-73
2022/10/17 02:49:22;;;;;;;9.23;8.18;;;14.10;99.90;;;;;;4968971;28;101458;-73
2022/10/17 02:52:20;;;;;;;11.35;8.65;;;14.10;99.90;;;;;;4953064;28;98618;-73
2022/10/17 02:54:53;;;;;;;9.98;8.75;;;14.10;99.90;;;;;;4950089;28;98005;-73
2022/10/17 02:57:35;;;;;;;9.93;7.73;;;14.00;99.90;;;;;;4952695;28;101997;-73
2022/10/17 03:00:06;;;;;;;9.38;8.43;;;14.00;99.90;;;;;;4968806;28;101522;-73
2022/10/17 03:02:41;;;;;;;11.32;8.75;;;14.00;99.90;;;;;;4952431;28;99241;-73
2022/10/17 03:05:10;;;;;;;12.18;9.65;;;14.00;99.90;;;;;;4968725;28;98527;-73
2022/10/17 03:07:37;;;;;;;10.25;9.13;;;14.00;99.90;;;;;;4968502;28;102044;-73
2022/10/17 03:10:05;;;;;;;9.40;8.30;;;14.00;99.90;;;;;;4952297;28;101702;-73
2022/10/17 03:12:32;;;;;;;9.68;8.60;;;14.00;99.90;;;;;;4952547;28;98575;-73
2022/10/17 03:14:59;;;;;;;10.93;9.55;;;14.00;99.90;;;;;;4952738;28;98668;-73
2022/10/17 03:17:26;;;;;;;11.30;8.98;;;14.10;99.90;;;;;;4968209;28;101879;-73
2022/10/17 03:19:53;;;;;;;11.60;10.40;;;14.10;99.90;;;;;;4968877;28;101884;-73
2022/10/17 03:22:20;;;;;;;13.13;8.95;;;14.10;99.90;;;;;;4951242;28;98539;-73
2022/10/17 03:24:47;;;;;;;11.02;9.90;;;14.10;99.90;;;;;;4968629;28;98938;-73
2022/10/17 03:27:14;;;;;;;10.45;9.55;;;14.10;99.90;;;;;;4951640;28;102312;-73
2022/10/17 03:29:42;;;;;;;10.95;9.82;;;14.10;99.90;;;;;;4951868;28;102193;-73
2022/10/17 03:32:09;;;;;;;13.88;9.68;;;14.10;99.90;;;;;;4936278;28;98611;-73
2022/10/17 03:34:37;;;;;;;10.30;8.63;;;14.10;99.90;;;;;;4968684;28;98580;-73
2022/10/17 03:37:04;;;;;;;12.35;9.73;;;14.10;99.90;;;;;;4951626;28;101702;-73
2022/10/17 03:39:33;;;;;;;11.43;10.23;;;14.10;99.90;;;;;;4968117;28;100900;-73
2022/10/17 03:42:00;;;;;;;11.32;10.00;;;14.20;99.90;;;;;;4968108;28;98586;-73
2022/10/17 03:44:27;;;;;;;9.43;8.43;;;14.20;99.90;;;;;;4953438;28;97842;-73
2022/10/17 03:46:54;;;;;;;12.05;9.80;;;14.20;99.90;;;;;;4935454;28;101608;-73
2022/10/17 03:49:21;;;;;;;11.20;10.10;;;14.20;99.90;;;;;;4953150;28;98954;-73
2022/10/17 03:51:47;;;;;;;10.40;9.23;;;14.20;99.90;;;;;;4951015;28;99335;-73
2022/10/17 03:54:16;;;;;;;9.63;8.73;;;14.20;99.90;;;;;;4952387;28;98696;-73
2022/10/17 03:56:43;;;;;;;12.00;9.90;;;14.30;99.90;;;;;;4951411;28;101592;-73
2022/10/17 03:59:14;;;;;;;10.93;9.60;;;14.30;99.90;;;;;;4967833;28;101056;-73
2022/10/17 04:01:47;;;;;;;10.65;8.82;;;14.30;99.90;;;;;;4968214;28;98638;-73
2022/10/17 04:04:14;;;;;;;10.70;9.70;;;14.30;99.90;;;;;;4968168;28;100499;-73
2022/10/17 04:06:41;;;;;;;9.57;8.65;;;14.40;99.90;;;;;;4967680;28;101787;-73
2022/10/17 04:09:10;;;;;;;13.02;9.85;;;14.40;99.90;;;;;;4968301;28;101668;-73
2022/10/17 04:12:00;;;;;;;10.10;8.95;;;14.40;99.90;;;;;;4944993;28;98544;-73
2022/10/17 04:14:28;;;;;;;10.73;9.68;;;14.40;99.90;;;;;;4951868;28;99048;-73
2022/10/17 04:16:55;;;;;;;9.55;8.65;;;14.50;99.90;;;;;;4967265;28;102121;-73
2022/10/17 04:19:24;;;;;;;10.35;9.43;;;14.50;99.90;;;;;;4967678;28;102405;-73
2022/10/17 04:21:52;;;;;;;10.35;9.27;;;14.50;99.90;;;;;;4951887;28;98554;-73
2022/10/17 04:24:20;;;;;;;11.02;9.93;;;14.50;99.90;;;;;;4968031;28;99094;-73
2022/10/17 04:27:05;;;;;;;15.02;10.45;;;14.50;99.90;;;;;;4951302;28;101694;-73
2022/10/17 04:29:36;;;;;;;12.63;9.85;;;14.60;99.90;;;;;;4950760;28;101434;-73
2022/10/17 04:32:08;;;;;;;12.68;10.80;;;14.60;99.90;;;;;;4951974;28;98632;-73
2022/10/17 04:34:48;;;;;;;13.02;9.80;;;14.60;99.90;;;;;;4970957;28;97873;-73
2022/10/17 04:37:16;;;;;;;14.82;12.18;;;14.70;99.90;;;;;;4954693;28;101680;-73
2022/10/17 04:39:46;;;;;;;11.98;10.77;;;14.70;99.90;;;;;;4938078;28;101413;-73
2022/10/17 04:42:13;;;;;;;12.18;10.95;;;14.70;99.90;;;;;;4955630;28;99981;-73
2022/10/17 04:44:40;;;;;;;12.55;11.20;;;14.70;99.90;;;;;;4954062;28;98557;-73
2022/10/17 04:47:07;;;;;;;12.35;11.05;;;14.70;99.90;;;;;;4954121;28;101679;-73
2022/10/17 04:49:34;;;;;;;14.30;12.52;;;14.70;99.90;;;;;;4970167;28;101929;-73
2022/10/17 04:52:07;;;;;;;17.40;11.80;;;14.80;99.90;;;;;;4955343;28;98625;-73
2022/10/17 04:54:38;;;;;;;11.73;10.60;;;14.80;99.90;;;;;;4955818;28;98594;-73
2022/10/17 04:57:08;;;;;;;13.52;12.10;;;14.80;99.90;;;;;;4953869;28;101566;-73
2022/10/17 04:59:35;;;;;;;14.20;11.55;;;14.80;99.90;;;;;;4954215;28;101656;-73
2022/10/17 05:02:31;;;;;;;15.25;12.25;;;14.80;99.90;;;;;;4918361;28;98622;-73
2022/10/17 05:04:59;;;;;;;14.25;12.05;;;14.80;99.90;;;;;;4953771;28;98504;-73
2022/10/17 05:07:26;;;;;;;14.50;12.43;;;14.80;99.90;;;;;;4953332;28;102731;-73
2022/10/17 05:09:58;;;;;;;11.90;10.68;;;14.90;99.90;;;;;;4953269;28;99534;-73
2022/10/17 05:12:26;;;;;;;13.45;12.15;;;14.90;99.90;;;;;;4970006;28;98571;-73
2022/10/17 05:14:53;;;;;;;15.95;13.20;;;14.90;99.90;;;;;;4953738;28;98669;-73
2022/10/17 05:17:22;;;;;;;18.63;13.18;;;14.90;99.90;;;;;;4953554;28;101450;-73
2022/10/17 05:19:49;;;;;;;15.50;12.45;;;14.90;99.90;;;;;;4953238;28;101824;-73
2022/10/17 05:22:16;;;;;;;15.05;13.43;;;14.90;99.90;;;;;;4970043;28;98629;-73
2022/10/17 05:24:43;;;;;;;14.50;12.48;;;14.90;99.90;;;;;;4953990;28;98217;-73
2022/10/17 05:27:10;;;;;;;17.60;12.98;;;15.00;99.90;;;;;;4953595;28;99110;-73
2022/10/17 05:29:38;;;;;;;15.23;13.63;;;15.00;99.90;;;;;;4953223;28;101950;-73
2022/10/17 05:32:14;;;;;;;14.70;13.20;;;15.00;99.90;;;;;;4969573;28;99385;-73
2022/10/17 05:34:42;;;;;;;18.60;13.27;;;15.00;99.90;;;;;;4969989;28;99355;-73
2022/10/17 05:37:09;;;;;;;14.93;13.18;;;15.10;99.90;;;;;;4969032;28;101774;-73
2022/10/17 05:39:37;;;;;;;15.25;13.77;;;15.10;99.90;;;;;;4969447;28;101016;-73
2022/10/17 05:42:04;;;;;;;14.60;13.13;;;15.20;99.90;;;;;;4953444;28;99155;-73
2022/10/17 05:44:32;;;;;;;17.13;13.68;;;15.20;99.90;;;;;;4969202;28;98729;-73
2022/10/17 05:46:59;;;;;;;15.40;13.52;;;15.20;99.90;;;;;;4953081;28;101588;-73
2022/10/17 05:49:27;;;;;;;16.02;14.43;;;15.30;99.90;;;;;;4953516;28;101408;-73
2022/10/17 05:52:12;;;;;;;16.25;12.20;;;15.20;99.90;;;;;;4953464;28;98894;-73
2022/10/17 05:54:53;;;;;;;15.88;13.35;;;15.20;99.90;;;;;;4969601;28;98571;-73
2022/10/17 05:57:24;;;;;;;17.80;13.05;;;15.30;99.90;;;;;;4936398;28;102645;-73
2022/10/17 05:59:51;;;;;;;15.73;13.00;;;15.30;99.90;;;;;;4969140;28;102573;-73
2022/10/17 06:02:20;;;;;;;14.52;12.63;;;15.30;99.90;;;;;;4952995;28;98561;-73
2022/10/17 06:04:48;;;;;;;15.38;13.68;;;15.30;99.90;;;;;;4954247;28;98584;-73
2022/10/17 06:07:17;;;;;;;14.57;13.05;;;15.30;99.90;;;;;;4952688;28;101458;-73
2022/10/17 06:09:44;;;;;;;15.23;13.63;;;15.30;99.90;;;;;;4952709;28;101638;-73
2022/10/17 06:12:16;;;;;;;16.02;13.25;;;15.40;99.90;;;;;;4969437;28;98574;-73
2022/10/17 06:14:44;;;;;;;15.68;12.52;;;15.40;99.90;;;;;;4969679;28;98517;-73
2022/10/17 06:17:12;;;;;;;15.35;13.55;;;15.40;99.90;;;;;;4952371;28;101209;-73
2022/10/17 06:19:43;;;;;;;14.73;13.38;;;15.40;99.90;;;;;;4968819;28;101555;-73
2022/10/17 06:22:11;;;;;;;16.05;13.73;;;15.50;99.90;;;;;;4952648;28;99990;-73
2022/10/17 06:24:39;;;;;;;15.98;13.38;;;15.50;99.90;;;;;;4969197;28;98516;-73
2022/10/17 06:27:06;;;;;;;16.10;12.95;;;15.50;99.90;;;;;;4968627;28;102016;-73
2022/10/17 06:29:35;;;;;;;14.90;13.45;;;15.50;99.90;;;;;;4936417;28;101607;-73
2022/10/17 06:32:02;;;;;;;13.65;12.35;;;15.60;99.90;;;;;;4952500;28;98661;-73
2022/10/17 06:34:31;;;;;;;13.90;12.40;;;15.60;99.90;;;;;;4952800;28;98641;-73
2022/10/17 06:36:59;;;;;;;15.00;13.48;;;15.60;99.90;;;;;;4951706;28;101612;-73
2022/10/17 06:39:32;;;;;;;16.63;13.73;;;15.70;99.90;;;;;;4952488;28;101458;-73
2022/10/17 06:42:04;;;;;;;14.07;12.68;;;15.70;99.90;;;;;;4952343;28;98654;-73
2022/10/17 06:44:57;;;;;;;14.57;12.98;;;15.70;99.90;;;;;;4929748;28;98643;-73
2022/10/17 06:48:01;;;;;;;14.45;12.75;;;15.70;99.90;;;;;;4892319;28;99903;-73
2022/10/17 06:50:52;;;;;;;15.45;13.85;;;15.70;99.90;;;;;;4965740;28;102396;-73
2022/10/17 06:53:23;;;;;;;15.13;13.55;;;15.70;99.90;;;;;;4952339;28;98590;-73
2022/10/17 06:56:24;;;;;;;13.32;11.82;;;15.80;99.90;;;;;;4967595;28;98590;-73
2022/10/17 06:59:05;;;;;;;15.13;12.40;;;15.90;99.90;;;;;;4951870;28;101669;-73
2022/10/17 07:01:36;;;;;;;17.77;13.27;;;15.90;99.90;;;;;;4968141;28;101707;-73
2022/10/17 07:04:03;;;;;;;17.30;13.93;;;16.00;99.90;;;;;;4952302;28;98521;-73
2022/10/17 07:06:31;;;;;;;13.68;12.32;;;16.00;99.90;;;;;;4952490;28;97949;-73
2022/10/17 07:09:05;;;;;;;15.10;12.48;;;16.10;99.90;;;;;;4968008;28;101705;-73
2022/10/17 07:11:35;;;;;;;14.30;12.73;;;16.20;99.90;;;;;;4968029;28;101704;-73
2022/10/17 07:14:02;;;;;;;13.27;11.98;;;16.30;99.90;;;;;;4967950;28;99832;-73
2022/10/17 07:16:29;;;;;;;12.65;11.35;;;16.30;99.90;;;;;;4968279;28;98674;-74
2022/10/17 07:19:09;;;;;;;15.55;12.30;;;16.40;99.90;;;;;;5094637;27;87749;-73
2022/10/17 07:21:37;;;;;;;13.68;10.68;;;16.50;99.90;;;;;;5056619;27;91862;-73
2022/10/17 07:24:06;;;;;;;12.57;11.35;;;16.70;99.90;;;;;;5056543;27;91481;-73
2022/10/17 07:26:33;;;;;;;12.50;11.05;;;16.70;99.90;;;;;;5073460;27;90569;-73
2022/10/17 07:29:01;;;;;;;12.32;11.10;;;16.80;99.90;;;;;;5073250;27;89670;-73
2022/10/17 07:31:33;;;;;;;12.10;11.00;;;16.90;99.90;;;;;;5057232;27;90311;-73
2022/10/17 07:34:00;;;;;;;13.02;11.38;;;17.00;99.90;;;;;;5073163;27;91064;-73
2022/10/17 07:36:27;;;;;;;12.25;10.85;;;17.10;99.90;;;;;;5073188;27;90783;-73
2022/10/17 07:38:55;;;;;;;11.85;10.50;;;17.20;99.90;;;;;;5073280;27;88475;-73
2022/10/17 07:41:24;;;;;;;11.70;10.50;;;17.40;99.90;;;;;;5072965;27;91815;-73
2022/10/17 07:43:50;;;;;;;10.65;8.98;;;17.50;99.90;;;;;;5056258;27;91538;-73
2022/10/17 07:46:21;;;;;;;12.48;9.68;;;17.70;99.90;;;;;;5074070;27;90856;-73
2022/10/17 07:48:48;;;;;;;11.80;10.65;;;17.80;99.90;;;;;;5074003;27;90024;-73
2022/10/17 07:51:17;;;;;;;11.65;10.45;;;17.90;99.90;;;;;;5072644;27;91996;-73
2022/10/17 07:53:44;;;;;;;14.50;10.32;;;18.00;99.90;;;;;;5072985;27;91237;-73
2022/10/17 07:56:13;;;;;;;13.02;9.77;;;18.10;99.90;;;;;;5073899;27;88408;-73
2022/10/17 07:58:40;;;;;;;11.77;8.70;;;18.20;99.90;;;;;;5073498;27;98910;-73
2022/10/17 08:01:13;;;;;;;11.45;8.25;;;18.40;99.90;;;;;;5075114;27;87508;-73
2022/10/17 08:03:42;;;;;;;10.13;8.27;;;18.50;99.90;;;;;;5074388;27;87734;-73
2022/10/17 08:06:09;;;;;;;10.05;9.05;;;18.70;99.90;;;;;;5075183;27;88411;-73
2022/10/17 08:08:36;;;;;;;10.00;8.43;;;18.70;99.90;;;;;;5075391;27;88074;-73
2022/10/17 08:11:06;;;;;;;10.07;9.13;;;18.70;99.90;;;;;;5075184;27;87381;-73
2022/10/17 08:13:33;;;;;;;9.52;8.48;;;18.80;99.90;;;;;;5073815;27;88137;-73
2022/10/17 08:16:01;;;;;;;9.40;8.50;;;18.80;99.90;;;;;;5073710;27;90966;-73
2022/10/17 08:18:28;;;;;;;10.05;8.95;;;18.90;99.90;;;;;;5056253;27;90465;-73
2022/10/17 08:20:59;;;;;;;10.32;9.00;;;19.00;99.90;;;;;;5073858;27;87384;-73
2022/10/17 08:23:27;;;;;;;10.73;8.88;;;19.10;99.90;;;;;;5073465;27;89807;-73
2022/10/17 08:25:54;;;;;;;8.85;7.45;;;19.20;99.90;;;;;;5074921;27;88478;-73
2022/10/17 08:28:20;;;;;;;13.52;8.90;;;19.30;99.90;;;;;;5072245;27;90442;-73
2022/10/17 08:30:47;;;;;;;10.00;8.80;;;19.40;99.90;;;;;;5061060;27;87390;-73
2022/10/17 08:33:14;;;;;;;9.10;8.20;;;19.50;99.90;;;;;;5042792;27;88527;-73
2022/10/17 08:35:41;;;;;;;8.73;7.25;;;19.50;99.90;;;;;;5061272;27;87500;-73
2022/10/17 08:38:08;;;;;;;9.88;8.15;;;19.60;99.90;;;;;;5042886;27;88894;-73
2022/10/17 08:40:41;;;;;;;9.07;8.20;;;19.60;99.90;;;;;;5061040;27;87470;-73
2022/10/17 08:43:11;;;;;;;9.02;8.23;;;19.60;99.90;;;;;;5059863;27;87476;-73
2022/10/17 08:45:47;;;;;;;10.48;8.43;;;19.60;99.90;;;;;;5059549;27;91594;-73
2022/10/17 08:48:19;;;;;;;8.88;6.88;;;19.60;99.90;;;;;;5059493;27;90786;-73
2022/10/17 08:50:55;;;;;;;9.43;6.93;;;19.50;99.90;;;;;;5061218;27;87399;-73
2022/10/17 08:53:37;;;;;;;9.93;7.93;;;19.50;99.90;;;;;;5060792;27;87475;-73
2022/10/17 08:56:19;;;;;;;10.70;7.32;;;19.50;99.90;;;;;;5061020;27;88560;-73
2022/10/17 08:58:57;;;;;;;10.30;7.22;;;19.50;99.90;;;;;;5059812;27;87979;-73
2022/10/17 09:01:53;;;;;;;8.93;7.90;;;19.50;99.90;;;;;;5042345;27;89695;-73
2022/10/17 09:05:00;;;;;;;8.98;7.38;;;19.60;99.90;;;;;;5059175;27;87819;-73
2022/10/17 09:07:47;;;;;;;8.70;7.80;;;19.60;99.90;;;;;;5059392;27;88333;-73
2022/10/17 09:10:20;;;;;;;9.15;7.32;;;19.50;99.90;;;;;;5060499;27;87504;-73
2022/10/17 09:13:09;;;;;;;11.05;7.53;;;19.50;99.90;;;;;;5060733;27;87311;-76
2022/10/17 09:16:17;;;;;;;9.68;7.60;;;19.70;99.90;;;;;;5058847;27;89613;-74
2022/10/17 09:18:55;;;;;;;8.73;7.78;;;19.70;99.90;;;;;;5060345;27;88298;-74
2022/10/17 09:21:43;;;;;;;8.73;7.93;;;19.60;99.90;;;;;;5060549;27;88006;-74
2022/10/17 09:24:19;;;;;;;9.77;7.97;;;19.70;99.90;;;;;;5059381;27;87483;-74
2022/10/17 09:26:46;;;;;;;11.48;8.23;;;19.70;99.90;;;;;;5060534;27;87389;-74
2022/10/17 09:29:22;;;;;;;8.68;7.80;;;19.60;99.90;;;;;;5058946;27;90932;-74
2022/10/17 09:32:13;;;;;;;10.00;8.30;;;19.70;99.90;;;;;;5059319;27;87412;-74
2022/10/17 09:34:40;;;;;;;12.55;7.85;;;19.70;99.90;;;;;;5060462;27;87747;-74
2022/10/17 09:37:13;;;;;;;8.55;7.55;;;19.60;99.90;;;;;;5058853;27;87679;-74
2022/10/17 09:39:41;;;;;;;8.50;7.63;;;19.60;99.90;;;;;;5060149;27;88295;-74
2022/10/17 09:42:18;;;;;;;8.38;7.53;;;19.60;99.90;;;;;;5058985;27;87988;-74
2022/10/17 09:45:11;;;;;;;8.32;7.07;;;19.60;99.90;;;;;;5058687;27;89949;-74
2022/10/17 09:48:12;;;;;;;10.52;7.80;;;19.60;99.90;;;;;;5058232;27;89479;-74
2022/10/17 09:50:40;;;;;;;10.00;7.60;;;19.70;99.90;;;;;;5058843;27;88457;-74
2022/10/17 09:53:19;;;;;;;11.20;8.48;;;19.60;99.90;;;;;;5058720;27;88055;-74
2022/10/17 09:55:50;;;;;;;10.65;7.95;;;19.70;99.90;;;;;;5060168;27;88024;-74
2022/10/17 09:58:20;;;;;;;9.80;8.50;;;19.60;99.90;;;;;;5041515;27;87549;-74
2022/10/17 10:00:47;;;;;;;10.20;7.53;;;19.60;99.90;;;;;;5058416;27;90941;-74
2022/10/17 10:03:25;;;;;;;10.43;8.88;;;19.60;99.90;;;;;;5058637;27;89143;-74
2022/10/17 10:06:01;;;;;;;11.48;8.10;;;19.60;99.90;;;;;;5060011;27;87381;-74
2022/10/17 10:08:35;;;;;;;11.02;8.63;;;19.60;99.90;;;;;;5058041;27;89378;-74
2022/10/17 10:11:05;;;;;;;9.15;8.10;;;19.60;99.90;;;;;;5058327;27;90607;-74
2022/10/17 10:13:34;;;;;;;8.23;7.45;;;19.60;99.90;;;;;;5058137;27;90839;-74
2022/10/17 10:16:40;;;;;;;10.25;9.27;;;19.60;99.90;;;;;;5041402;27;88666;-74
2022/10/17 10:19:39;;;;;;;10.40;8.32;;;19.70;99.90;;;;;;5000060;27;89398;-74
2022/10/17 10:22:15;;;;;;;9.57;8.57;;;19.60;99.90;;;;;;5059322;27;87332;-74
2022/10/17 10:24:42;;;;;;;10.52;8.43;;;19.60;99.90;;;;;;5059502;27;88017;-74
2022/10/17 10:27:15;;;;;;;13.52;9.38;;;19.50;99.90;;;;;;5057983;27;89696;-74
2022/10/17 10:29:47;;;;;;;9.52;8.52;;;19.50;99.90;;;;;;5057901;27;88321;-74
2022/10/17 10:32:30;;;;;;;11.70;9.35;;;19.50;99.90;;;;;;5040931;27;91421;-74
2022/10/17 10:35:19;;;;;;;9.50;8.20;;;19.50;99.90;;;;;;5057960;27;89039;-74
2022/10/17 10:37:52;;;;;;;13.40;8.95;;;19.50;99.90;;;;;;5058876;27;87308;-74
2022/10/17 10:40:19;;;;;;;;;;;19.40;99.90;;;;;;5059851;27;91810;-74
2022/10/17 10:42:50;;;;;;;11.43;9.68;;;19.20;99.90;;;;;;5058875;27;90862;-74
2022/10/17 10:45:19;;;;;;;12.13;9.40;;;19.10;99.90;;;;;;5057810;27;90457;-74
2022/10/17 10:48:30;;;;;;;10.88;9.65;;;19.20;99.90;;;;;;5059257;27;87367;-74
2022/10/17 10:51:18;;;;;;;12.93;11.13;;;19.20;99.90;;;;;;5059147;27;87454;-74
2022/10/17 10:54:15;;;;;;;15.50;11.32;;;19.10;99.90;;;;;;5056314;27;89008;-74
2022/10/17 10:56:42;;;;;;;11.80;10.52;;;19.10;99.90;;;;;;5057641;27;88407;-74
2022/10/17 10:59:21;;;;;;;11.48;10.38;;;19.00;99.90;;;;;;5056610;27;89470;-74
2022/10/17 11:02:10;;;;;;;12.20;10.90;;;19.10;99.90;;;;;;5057894;27;88837;-74
2022/10/17 11:04:37;;;;;;;14.27;10.90;;;19.10;99.90;;;;;;5056427;27;88419;-74
2022/10/17 11:07:12;;;;;;;16.17;11.98;;;19.00;99.90;;;;;;5057963;27;88490;-74
2022/10/17 11:09:49;;;;;;;14.95;11.95;;;19.00;99.90;;;;;;5057695;27;89882;-74
2022/10/17 11:12:32;;;;;;;14.48;11.85;;;19.00;99.90;;;;;;5057820;27;89104;-74
2022/10/17 11:15:14;;;;;;;14.35;11.45;;;18.90;99.90;;;;;;5056165;27;91049;-74
2022/10/17 11:18:03;;;;;;;11.10;9.93;;;18.80;99.90;;;;;;5038511;27;90792;-74
2022/10/17 11:20:33;;;;;;;12.75;11.15;;;18.90;99.90;;;;;;5058800;27;90448;-74
2022/10/17 11:23:33;;;;;;;14.13;11.85;;;18.80;99.90;;;;;;5056253;27;88371;-74
2022/10/17 11:26:05;;;;;;;13.50;12.10;;;18.90;99.90;;;;;;5056585;27;88982;-74
2022/10/17 11:28:32;;;;;;;12.17;10.97;;;18.90;99.90;;;;;;5055987;27;90545;-74
2022/10/17 11:31:01;;;;;;;15.75;13.40;;;18.90;99.90;;;;;;5056083;27;89413;-74
2022/10/17 11:33:43;;;;;;;15.00;11.57;;;19.00;99.90;;;;;;5055898;27;91376;-74
2022/10/17 11:36:11;;;;;;;12.07;10.85;;;19.10;99.90;;;;;;5056318;27;89372;-74
2022/10/17 11:38:50;;;;;;;15.73;10.95;;;19.10;99.90;;;;;;5055612;27;88863;-74
2022/10/17 11:41:30;;;;;;;13.07;10.80;;;19.20;99.90;;;;;;5057387;27;89278;-74
2022/10/17 11:44:05;;;;;;;13.68;10.50;;;19.20;99.90;;;;;;5055366;27;91854;-74
2022/10/17 11:46:35;;;;;;;12.25;11.05;;;19.20;99.90;;;;;;5057047;27;88516;-74
2022/10/17 11:49:26;;;;;;;11.35;10.15;;;19.20;99.90;;;;;;5055274;27;92923;-74
2022/10/17 11:52:18;;;;;;;12.18;11.07;;;19.20;99.90;;;;;;5055258;27;91990;-74
2022/10/17 11:55:26;;;;;;;12.52;11.05;;;19.10;99.90;;;;;;5041362;27;90095;-74
2022/10/17 11:58:14;;;;;;;13.43;10.85;;;19.10;99.90;;;;;;5056994;27;88499;-74
2022/10/17 12:01:00;;;;;;;13.02;11.05;;;19.10;99.90;;;;;;5056774;27;88842;-74
2022/10/17 12:03:33;;;;;;;13.07;10.68;;;19.10;99.90;;;;;;5055463;27;92347;-74
2022/10/17 12:06:09;;;;;;;13.32;10.50;;;19.00;99.90;;;;;;5060166;27;88846;-74
2022/10/17 12:08:54;;;;;;;13.13;11.82;;;19.00;99.90;;;;;;5060276;27;88577;-74
2022/10/17 12:11:44;;;;;;;12.95;11.75;;;19.00;99.90;;;;;;5058793;27;91572;-74
2022/10/17 12:14:35;;;;;;;12.15;10.90;;;19.10;99.90;;;;;;5060193;27;90800;-74
2022/10/17 12:17:04;;;;;;;12.77;11.27;;;19.10;99.90;;;;;;5059559;27;88694;-74
2022/10/17 12:19:33;;;;;;;10.70;9.73;;;19.00;99.90;;;;;;5058696;27;91020;-74
2022/10/17 12:22:12;;;;;;;9.70;8.75;;;19.00;99.90;;;;;;5060303;27;88927;-74
2022/10/17 12:24:40;;;;;;;10.32;9.32;;;18.90;99.90;;;;;;5060675;27;88780;-74
2022/10/17 12:27:42;;;;;;;12.30;9.70;;;18.90;99.90;;;;;;5060635;27;87891;-74
2022/10/17 12:30:15;;;;;;;10.02;9.10;;;19.00;99.90;;;;;;5060674;27;89513;-74
2022/10/17 12:33:00;;;;;;;10.52;9.45;;;18.90;99.90;;;;;;5060677;27;88981;-74
2022/10/17 12:35:35;;;;;;;10.55;9.55;;;19.00;99.90;;;;;;5060961;27;88681;-74
2022/10/17 12:38:04;;;;;;;9.20;8.30;;;19.00;99.90;;;;;;5059058;27;89469;-74
2022/10/17 12:40:34;;;;;;;10.82;8.70;;;19.00;99.90;;;;;;5059021;27;90890;-74
2022/10/17 12:43:14;;;;;;;10.15;9.15;;;19.10;99.90;;;;;;5058248;27;92221;-74
2022/10/17 12:45:56;;;;;;;10.32;9.43;;;19.10;99.90;;;;;;5058987;27;91122;-74
2022/10/17 12:48:35;;;;;;;12.45;10.50;;;19.30;99.90;;;;;;5060509;27;88001;-74
2022/10/17 12:51:02;;;;;;;9.38;8.57;;;19.40;99.90;;;;;;5057802;27;97866;-74
2022/10/17 12:54:00;;;;;;;9.10;8.25;;;19.50;99.90;;;;;;5059149;27;88566;-74
2022/10/17 12:56:48;;;;;;;8.25;7.50;;;19.60;99.90;;;;;;5059058;27;90478;-74
2022/10/17 12:59:23;;;;;;;8.85;8.00;;;19.70;99.90;;;;;;5060418;27;87925;-74
2022/10/17 13:01:57;;;;;;;8.45;7.60;;;19.70;99.90;;;;;;5058978;27;91192;-74
2022/10/17 13:04:27;;;;;;;9.43;7.53;;;19.90;99.90;;;;;;5058803;27;89779;-74
2022/10/17 13:06:57;;;;;;;8.43;7.63;;;19.90;99.90;;;;;;5058533;27;91335;-74
2022/10/17 13:09:31;;;;;;;7.55;6.75;;;19.90;99.90;;;;;;5059996;27;88789;-74